Time;durP1;ratioP1;P1;durP2;ratioP2;P2;SDS_P1;SDS_P2;PMS_P1;PMS_P2;Temp;Humidity;BMP_temperature;BMP_pressure;BME280_temperature;BME280_humidity;BME280_pressure;Samples;Min_cycle;Max_cycle;Signal;HPM_P1;HPM_P2
2023/01/05 00:00:47;;;;;;;;;;;;;;;17.68;68.61;100011.52;2212237;79;51687;-77
2023/01/05 00:03:48;;;;;;;;;;;;;;;17.77;68.32;100017.03;2214034;79;51427;-77
2023/01/05 00:06:50;;;;;;;;;;;;;;;17.85;67.97;100014.25;2235889;78;51448;-77
2023/01/05 00:09:51;;;;;;;;;;;;;;;17.93;67.74;100020.82;2239725;78;51422;-76
2023/01/05 00:22:53;;;;;;;;;;;;;;;17.85;67.67;100018.27;2265596;78;23442;-76
2023/01/05 00:25:54;;;;;;;;;;;;;;;17.83;67.75;100009.63;2266963;78;52655;-77
2023/01/05 00:28:56;;;;;;;;;;;;;;;17.80;67.77;100015.34;2270875;77;50710;-77
2023/01/05 00:31:58;;;;;;;;;;;;;;;17.77;67.85;100022.39;2244386;78;51414;-77
2023/01/05 00:34:59;;;;;;;;;;;;;;;17.71;68.13;100023.17;2233331;79;51618;-77
2023/01/05 00:38:01;;;;;;;;;;;;;;;17.76;67.96;100018.07;2186879;79;51083;-77
2023/01/05 00:41:02;;;;;;;;;;;;;;;17.80;67.79;100021.55;2233158;78;50651;-77
2023/01/05 00:44:04;;;;;;;;;;;;;;;17.81;67.66;100021.02;2233259;79;50626;-77
2023/01/05 00:47:06;;;;;;;;;;;;;;;17.82;67.64;100032.03;2210483;78;51456;-77
2023/01/05 00:50:08;;;;;;;;;;;;;;;17.80;67.59;100021.55;2187070;79;52972;-77
2023/01/05 00:53:09;;;;;;;;;;;;;;;17.79;67.70;100015.00;2233198;79;50660;-77
2023/01/05 00:56:11;;;;;;;;;;;;;;;17.75;67.73;100016.39;2232829;79;50505;-77
2023/01/05 00:59:12;;;;;;;;;;;;;;;17.72;67.92;100012.77;2253430;78;51512;-77
2023/01/05 01:02:14;;;;;;;;;;;;;;;17.69;68.00;100015.84;2246415;78;51001;-77
2023/01/05 01:05:15;;;;;;;;;;;;;;;17.64;68.13;100019.09;2269920;78;51526;-76
2023/01/05 01:08:17;;;;;;;;;;;;;;;17.63;68.17;100024.13;2269869;77;51396;-77
2023/01/05 01:11:19;;;;;;;;;;;;;;;17.71;67.92;100017.82;2271577;77;51564;-77
2023/01/05 01:14:20;;;;;;;;;;;;;;;17.79;67.71;100013.66;2269859;77;51446;-76
2023/01/05 01:17:22;;;;;;;;;;;;;;;17.87;67.47;100021.58;2269619;78;50479;-76
2023/01/05 01:20:23;;;;;;;;;;;;;;;17.94;67.24;100018.45;2269797;77;51415;-76
2023/01/05 01:23:25;;;;;;;;;;;;;;;17.96;67.08;100013.73;2239636;78;50809;-77
2023/01/05 01:26:27;;;;;;;;;;;;;;;17.95;67.05;100017.41;2186336;79;52448;-77
2023/01/05 01:29:28;;;;;;;;;;;;;;;17.94;67.11;100023.80;2237173;78;51501;-76
2023/01/05 01:32:30;;;;;;;;;;;;;;;17.92;67.12;100024.50;2265863;78;51461;-77
2023/01/05 01:35:31;;;;;;;;;;;;;;;17.90;67.17;100021.70;2265378;78;51481;-77
2023/01/05 01:38:33;;;;;;;;;;;;;;;17.86;67.23;100014.58;2241907;78;52411;-76
2023/01/05 01:41:35;;;;;;;;;;;;;;;17.83;67.27;100020.33;2265496;78;50214;-76
2023/01/05 01:44:49;;;;;;;;;;;;;;;17.79;67.52;100013.66;2265169;78;51442;-77
2023/01/05 01:47:57;;;;;;;;;;;;;;;17.76;67.52;100014.05;2265390;78;50692;-77
2023/01/05 01:50:58;;;;;;;;;;;;;;;17.75;67.51;100019.07;2265255;78;50440;-77
2023/01/05 01:54:01;;;;;;;;;;;;;;;17.75;67.56;100016.39;2265061;78;50428;-77
2023/01/05 01:57:02;;;;;;;;;;;;;;;17.72;67.64;100026.16;2264290;78;51478;-76
2023/01/05 02:00:05;;;;;;;;;;;;;;;17.67;67.74;100022.70;2259663;78;51529;-76
2023/01/05 02:03:06;;;;;;;;;;;;;;;17.68;67.84;100022.22;2246030;78;51304;-76
2023/01/05 02:06:08;;;;;;;;;;;;;;;17.65;67.83;100030.13;2269381;77;50606;-76
2023/01/05 02:09:10;;;;;;;;;;;;;;;17.61;67.91;100023.48;2269649;77;51528;-77
2023/01/05 02:12:28;;;;;;;;;;;;;;;17.53;68.20;100024.44;2269705;78;51512;-76
2023/01/05 02:15:43;;;;;;;;;;;;;;;17.51;68.34;100023.80;2246129;78;52548;-76
2023/01/05 02:19:02;;;;;;;;;;;;;;;17.58;68.10;100022.02;2269789;77;51560;-77
2023/01/05 02:22:05;;;;;;;;;;;;;;;17.67;67.82;100009.33;2269848;78;50739;-77
2023/01/05 02:25:25;;;;;;;;;;;;;;;17.77;67.49;100013.02;2270005;78;51653;-77
2023/01/05 02:28:41;;;;;;;;;;;;;;;17.86;67.22;100003.88;2241848;78;50145;-77
2023/01/05 02:31:50;;;;;;;;;;;;;;;17.93;67.02;100003.91;2266526;78;50341;-76
2023/01/05 02:34:53;;;;;;;;;;;;;;;17.94;66.87;100002.39;2265376;78;51532;-77
2023/01/05 02:38:13;;;;;;;;;;;;;;;17.93;66.89;99989.19;2265061;78;51620;-76
2023/01/05 02:41:16;;;;;;;;;;;;;;;17.91;66.91;99992.08;2267019;78;51748;-77
2023/01/05 02:44:18;;;;;;;;;;;;;;;17.89;66.97;99992.78;2220896;78;50971;-77
2023/01/05 02:47:27;;;;;;;;;;;;;;;17.85;67.04;99994.17;2264969;78;50562;-77
2023/01/05 02:50:29;;;;;;;;;;;;;;;17.82;67.09;99991.89;2265637;78;51546;-77
2023/01/05 02:53:32;;;;;;;;;;;;;;;17.78;67.28;99995.97;2267202;78;51035;-77
2023/01/05 02:56:38;;;;;;;;;;;;;;;17.75;67.35;99990.97;2264849;78;50789;-77
2023/01/05 02:59:41;;;;;;;;;;;;;;;17.76;67.30;99989.97;2258656;78;51474;-77
2023/01/05 03:02:43;;;;;;;;;;;;;;;17.73;67.37;99997.05;2270140;78;50728;-76
2023/01/05 03:05:49;;;;;;;;;;;;;;;17.72;67.40;99994.86;2246608;78;52350;-76
2023/01/05 03:08:52;;;;;;;;;;;;;;;17.70;67.43;100002.77;2269557;77;50774;-76
2023/01/05 03:15:17;;;;;;;;;;;;;;;17.68;67.59;100008.84;2270047;77;22327;-76
2023/01/05 03:18:19;;;;;;;;;;;;;;;17.61;67.68;100004.25;2246159;78;52546;-77
2023/01/05 03:21:21;;;;;;;;;;;;;;;17.56;67.84;100009.86;2269772;78;50280;-76
2023/01/05 03:37:51;;;;;;;;;;;;;;;17.82;67.14;100011.45;2251756;79;22236;-77
2023/01/05 03:40:53;;;;;;;;;;;;;;;17.91;66.87;100013.49;2251404;79;50748;-76
2023/01/05 03:43:55;;;;;;;;;;;;;;;17.93;66.74;99996.73;2262215;78;49644;-76
2023/01/05 03:46:56;;;;;;;;;;;;;;;17.93;66.73;100008.78;2261942;78;50394;-76
2023/01/05 03:49:58;;;;;;;;;;;;;;;17.92;66.72;99995.58;2251411;79;50809;-77
2023/01/05 03:52:59;;;;;;;;;;;;;;;17.89;66.80;99995.45;2251372;79;50453;-76
2023/01/05 03:56:01;;;;;;;;;;;;;;;17.88;66.87;99992.96;2261930;77;51455;-76
2023/01/05 03:59:02;;;;;;;;;;;;;;;17.84;66.88;100004.58;2271364;75;52506;-76
2023/01/05 04:02:04;;;;;;;;;;;;;;;17.82;66.94;100004.76;2269616;78;51380;-76
2023/01/05 04:05:06;;;;;;;;;;;;;;;17.77;67.06;100013.02;2271084;76;51531;-75
2023/01/05 04:08:07;;;;;;;;;;;;;;;17.76;67.11;100012.72;2271007;76;51412;-76
2023/01/05 04:11:13;;;;;;;;;;;;;;;17.77;67.10;100011.17;2271539;77;50638;-75
2023/01/05 04:14:15;;;;;;;;;;;;;;;17.76;67.13;100012.72;2269646;78;50740;-77
2023/01/05 04:17:16;;;;;;;;;;;;;;;17.74;67.20;100010.73;2269526;78;51583;-76
2023/01/05 04:20:18;;;;;;;;;;;;;;;17.72;67.24;100020.80;2271327;77;51435;-75
2023/01/05 04:23:20;;;;;;;;;;;;;;;17.68;67.36;100027.06;2246088;78;52437;-76
2023/01/05 04:26:21;;;;;;;;;;;;;;;17.66;67.42;100031.77;2269566;77;50244;-76
2023/01/05 04:29:23;;;;;;;;;;;;;;;17.64;67.42;100048.52;2271261;76;50009;-76
2023/01/05 04:32:24;;;;;;;;;;;;;;;17.56;67.66;100042.78;2265624;78;50278;-76
2023/01/05 04:35:26;;;;;;;;;;;;;;;17.53;67.87;100036.48;2267027;78;51715;-76
2023/01/05 04:38:27;;;;;;;;;;;;;;;17.60;67.63;100046.74;2264840;78;51422;-75
2023/01/05 04:41:29;;;;;;;;;;;;;;;17.67;67.39;100045.45;2266768;78;50571;-78
2023/01/05 04:44:31;;;;;;;;;;;;;;;17.78;67.11;100042.80;2264867;78;50759;-76
2023/01/05 04:47:32;;;;;;;;;;;;;;;17.86;67.01;100061.94;2241338;78;51064;-76
2023/01/05 04:50:34;;;;;;;;;;;;;;;17.95;66.77;100052.21;2266776;78;50680;-75
2023/01/05 04:53:35;;;;;;;;;;;;;;;17.98;66.58;100053.67;2264969;78;50667;-75
2023/01/05 04:56:37;;;;;;;;;;;;;;;17.98;66.54;100059.03;2264628;78;50678;-75
2023/01/05 04:59:39;;;;;;;;;;;;;;;17.97;66.55;100073.45;2238558;78;50539;-75
2023/01/05 05:02:40;;;;;;;;;;;;;;;17.93;66.64;100080.19;2264760;78;51499;-75
2023/01/05 05:05:42;;;;;;;;;;;;;;;17.91;66.68;100082.26;2266307;78;50671;-75
2023/01/05 05:08:43;;;;;;;;;;;;;;;17.89;66.73;100082.44;2264431;78;50167;-78
2023/01/05 05:11:45;;;;;;;;;;;;;;;17.86;66.81;100076.14;2241010;78;51637;-76
2023/01/05 05:14:47;;;;;;;;;;;;;;;17.81;66.90;100083.39;2265962;78;50687;-74
2023/01/05 05:17:48;;;;;;;;;;;;;;;17.82;66.94;100086.89;2265765;78;49841;-74
2023/01/05 05:20:50;;;;;;;;;;;;;;;17.79;67.02;100095.28;2264265;78;50396;-73
2023/01/05 05:23:52;;;;;;;;;;;;;;;17.76;67.10;100101.02;2240962;78;51779;-74
2023/01/05 05:26:54;;;;;;;;;;;;;;;17.72;67.28;100094.38;2265677;78;50282;-76
2023/01/05 05:29:55;;;;;;;;;;;;;;;17.69;67.40;100095.59;2262413;78;50605;-77
2023/01/05 05:32:57;;;;;;;;;;;;;;;17.70;67.38;100100.42;2264352;78;51315;-76
2023/01/05 05:35:58;;;;;;;;;;;;;;;17.69;68.98;100095.59;2264307;78;51520;-76
2023/01/05 05:39:00;;;;;;;;;;;;;;;17.77;67.74;100087.95;2264084;78;51584;-77
2023/01/05 05:42:01;;;;;;;;;;;;;;;17.69;68.02;100082.73;2264262;78;51378;-75
2023/01/05 05:45:03;;;;;;;;;;;;;;;17.67;68.08;100087.44;2264273;78;50404;-75
2023/01/05 05:48:05;;;;;;;;;;;;;;;17.71;68.18;100087.38;2240747;78;51524;-76
2023/01/05 05:51:06;;;;;;;;;;;;;;;17.81;68.19;100091.94;2265939;78;50372;-76
2023/01/05 05:54:08;;;;;;;;;;;;;;;17.88;68.07;100090.64;2264306;78;50772;-76
2023/01/05 05:57:10;;;;;;;;;;;;;;;17.95;67.90;100083.52;2264079;78;51266;-75
2023/01/05 06:00:12;;;;;;;;;;;;;;;17.98;67.72;100087.98;2240070;78;50050;-76
2023/01/05 06:03:13;;;;;;;;;;;;;;;17.96;67.65;100094.04;2268958;78;50462;-76
2023/01/05 06:06:15;;;;;;;;;;;;;;;17.98;67.66;100104.53;2268821;78;50386;-75
2023/01/05 06:09:16;;;;;;;;;;;;;;;17.96;67.61;100114.63;2271692;77;50119;-75
2023/01/05 06:12:18;;;;;;;;;;;;;;;17.92;67.74;100128.06;2247198;78;51614;-77
2023/01/05 06:15:20;;;;;;;;;;;;;;;17.90;67.75;100137.61;2270707;77;51458;-74
2023/01/05 06:18:22;;;;;;;;;;;;;;;17.86;67.75;100140.38;2268694;78;51547;-74
2023/01/05 06:21:23;;;;;;;;;;;;;;;17.87;67.73;100150.56;2268941;77;50317;-74
2023/01/05 06:24:25;;;;;;;;;;;;;;;17.81;67.89;100133.42;2268883;78;50371;-76
2023/01/05 06:27:26;;;;;;;;;;;;;;;17.81;67.94;100136.09;2268751;78;50627;-73
2023/01/05 06:30:28;;;;;;;;;;;;;;;17.78;68.04;100139.95;2269143;78;51550;-75
2023/01/05 06:33:29;;;;;;;;;;;;;;;17.75;68.09;100136.80;2245599;78;52352;-76
2023/01/05 06:36:31;;;;;;;;;;;;;;;17.72;68.15;100139.87;2245498;78;51439;-75
2023/01/05 06:39:33;;;;;;;;;;;;;;;17.68;68.30;100139.43;2270025;76;51468;-76
2023/01/05 06:42:34;;;;;;;;;;;;;;;17.64;68.35;100145.65;2271298;77;51515;-75
2023/01/05 06:45:36;;;;;;;;;;;;;;;17.65;68.57;100158.55;2266862;78;51411;-76
2023/01/05 06:48:37;;;;;;;;;;;;;;;17.67;68.41;100169.04;2240001;78;52352;-76
2023/01/05 06:51:39;;;;;;;;;;;;;;;17.58;68.77;100171.83;2232031;79;50246;-76
2023/01/05 06:54:40;;;;;;;;;;;;;;;17.66;68.47;100171.41;2232536;78;50228;-77
2023/01/05 06:57:42;;;;;;;;;;;;;;;17.73;68.35;100173.14;2209896;79;50248;-77
2023/01/05 07:00:44;;;;;;;;;;;;;;;17.82;68.18;100176.03;2186342;79;51657;-77
2023/01/05 07:03:45;;;;;;;;;;;;;;;17.92;68.00;100188.29;2232806;79;52282;-76
2023/01/05 07:06:47;;;;;;;;;;;;;;;17.97;68.12;100186.70;2209920;79;50790;-76
2023/01/05 07:09:48;;;;;;;;;;;;;;;17.97;68.11;100185.36;2234417;78;52224;-76
2023/01/05 07:12:50;;;;;;;;;;;;;;;17.97;68.18;100182.68;2237781;79;52565;-76
2023/01/05 07:15:52;;;;;;;;;;;;;;;17.95;68.11;100186.05;2251186;78;51438;-76
2023/01/05 07:18:53;;;;;;;;;;;;;;;17.94;68.13;100187.59;2261652;78;51394;-77
2023/01/05 07:21:55;;;;;;;;;;;;;;;17.96;68.05;100198.95;2262186;78;51528;-78
2023/01/05 07:24:58;;;;;;;;;;;;;;;17.95;68.00;100193.25;2262164;78;51007;-78
2023/01/05 07:28:00;;;;;;;;;;;;;;;17.95;67.84;100198.61;2251104;79;51545;-78
2023/01/05 07:31:01;;;;;;;;;;;;;;;17.93;67.80;100193.95;2251250;79;50431;-78
2023/01/05 07:34:03;;;;;;;;;;;;;;;17.93;67.79;100200.64;2262248;78;51435;-78
2023/01/05 07:37:04;;;;;;;;;;;;;;;18.01;67.51;100201.38;2261811;78;51114;-78
2023/01/05 07:40:07;;;;;;;;;;;;;;;18.11;67.21;100213.59;2253109;78;50343;-78
2023/01/05 07:43:08;;;;;;;;;;;;;;;18.11;67.11;100217.13;2263610;77;50675;-78
2023/01/05 07:46:10;;;;;;;;;;;;;;;18.11;67.07;100209.58;2269436;78;51497;-78
2023/01/05 07:49:12;;;;;;;;;;;;;;;18.09;67.04;100218.34;2245972;78;50958;-78
2023/01/05 07:52:13;;;;;;;;;;;;;;;18.07;67.03;100229.23;2269626;78;50731;-77
2023/01/05 07:55:15;;;;;;;;;;;;;;;18.03;67.06;100232.80;2269815;77;51437;-78
2023/01/05 07:58:16;;;;;;;;;;;;;;;18.00;67.10;100235.02;2269701;78;50421;-78
2023/01/05 08:01:18;;;;;;;;;;;;;;;17.97;67.09;100245.59;2246422;78;50093;-78
2023/01/05 08:04:19;;;;;;;;;;;;;;;17.95;67.14;100239.59;2269975;77;52443;-78
2023/01/05 08:07:21;;;;;;;;;;;;;;;17.92;67.12;100241.83;2269839;77;51491;-78
2023/01/05 08:10:29;;;;;;;;;;;;;;;17.89;67.26;100250.23;2270638;77;51417;-78
2023/01/05 08:16:50;;;;;;;;;;;;;;;18.01;66.95;100271.48;2270167;78;22380;-77
2023/01/05 08:19:51;;;;;;;;;;;;;;;18.08;66.72;100275.56;2269986;77;50230;-76
2023/01/05 08:22:53;;;;;;;;;;;;;;;18.08;66.66;100291.11;2269986;78;50325;-77
2023/01/05 08:25:55;;;;;;;;;;;;;;;18.09;66.60;100293.30;2246537;78;51187;-77
2023/01/05 08:28:56;;;;;;;;;;;;;;;18.06;66.61;100283.80;2269786;77;51494;-77
2023/01/05 08:31:58;;;;;;;;;;;;;;;18.06;66.60;100282.46;2270058;78;50243;-77
2023/01/05 08:34:59;;;;;;;;;;;;;;;18.01;66.71;100300.42;2270029;78;50270;-77
2023/01/05 08:38:01;;;;;;;;;;;;;;;17.99;66.71;100294.42;2245908;78;51163;-77
2023/01/05 08:41:03;;;;;;;;;;;;;;;17.94;66.77;100302.19;2268707;78;50860;-77
2023/01/05 08:44:05;;;;;;;;;;;;;;;17.97;66.71;100304.99;2266306;78;52404;-78
2023/01/05 08:47:07;;;;;;;;;;;;;;;17.90;66.90;100308.91;2265192;78;50293;-78
2023/01/05 08:50:09;;;;;;;;;;;;;;;17.90;66.92;100304.90;2241954;78;50240;-77
2023/01/05 08:53:11;;;;;;;;;;;;;;;18.03;66.58;100306.42;2265329;78;51471;-78
2023/01/05 08:56:12;;;;;;;;;;;;;;;18.08;66.45;100315.72;2265198;78;50247;-77
2023/01/05 08:59:14;;;;;;;;;;;;;;;18.09;66.35;100312.88;2265151;78;50689;-77
2023/01/05 09:02:16;;;;;;;;;;;;;;;18.09;66.36;100318.74;2241807;78;52556;-77
2023/01/05 09:05:17;;;;;;;;;;;;;;;18.07;66.39;100314.90;2265168;78;51444;-77
2023/01/05 09:08:19;;;;;;;;;;;;;;;18.05;66.43;100325.78;2264872;78;51498;-77
2023/01/05 09:11:21;;;;;;;;;;;;;;;18.03;66.45;100334.53;2262822;78;51495;-77
2023/01/05 09:14:23;;;;;;;;;;;;;;;18.01;66.50;100335.23;2267355;77;50286;-77
2023/01/05 09:17:24;;;;;;;;;;;;;;;17.99;66.55;100341.78;2266724;78;50653;-77
2023/01/05 09:20:26;;;;;;;;;;;;;;;17.95;66.58;100333.27;2266798;78;51562;-77
2023/01/05 09:23:28;;;;;;;;;;;;;;;17.90;66.77;100362.45;2265304;78;50424;-77
2023/01/05 09:26:29;;;;;;;;;;;;;;;17.92;66.79;100367.11;2241787;78;51939;-77
2023/01/05 09:29:31;;;;;;;;;;;;;;;18.00;66.56;100371.02;2267287;78;51510;-77
2023/01/05 09:32:32;;;;;;;;;;;;;;;18.11;66.25;100368.89;2265411;78;51526;-77
2023/01/05 09:35:34;;;;;;;;;;;;;;;18.07;66.31;100372.46;2267055;78;51520;-77
2023/01/05 09:38:35;;;;;;;;;;;;;;;18.06;66.31;100381.01;2241806;78;51392;-77
2023/01/05 09:41:44;;;;;;;;;;;;;;;18.06;66.36;100393.06;2266763;78;50725;-77
2023/01/05 09:44:50;;;;;;;;;;;;;;;18.04;66.36;100401.78;2268466;78;50764;-77
2023/01/05 09:47:52;;;;;;;;;;;;;;;18.01;66.39;100402.67;2269934;77;51504;-77
2023/01/05 09:50:54;;;;;;;;;;;;;;;17.99;66.43;100402.84;2246389;78;51258;-77
2023/01/05 09:53:55;;;;;;;;;;;;;;;17.95;66.52;100412.24;2269936;77;50595;-77
2023/01/05 10:00:35;;;;;;;;;;;;;;;17.84;66.83;100416.73;2260966;77;24460;-78
2023/01/05 10:07:23;;;;;;;;;;;;;;;17.99;66.43;100422.92;2233288;78;22337;-77
2023/01/05 10:10:32;;;;;;;;;;;;;;;18.14;65.95;100416.74;2233002;78;50482;-77
2023/01/05 10:13:35;;;;;;;;;;;;;;;18.12;65.93;100425.46;2235324;78;51397;-77
2023/01/05 10:16:37;;;;;;;;;;;;;;;18.09;66.04;100424.50;2269591;78;51516;-77
2023/01/05 10:19:38;;;;;;;;;;;;;;;18.04;66.10;100449.97;2269649;78;51523;-77
2023/01/05 10:22:48;;;;;;;;;;;;;;;18.06;66.00;100407.78;2269805;78;50737;-77
2023/01/05 10:25:51;;;;;;;;;;;;;;;18.01;66.06;100419.55;2278788;77;50115;-78
2023/01/05 10:28:57;;;;;;;;;;;;;;;18.00;66.05;100439.30;2246120;77;52352;-78
2023/01/05 10:32:00;;;;;;;;;;;;;;;17.99;66.03;100422.92;2269766;78;50330;-78
2023/01/05 10:35:07;;;;;;;;;;;;;;;17.93;66.15;100423.67;2269592;77;50638;-77
2023/01/05 10:38:26;;;;;;;;;;;;;;;17.87;66.33;100436.43;2278812;75;51494;-78
2023/01/05 10:41:39;;;;;;;;;;;;;;;17.92;66.30;100431.36;2268709;77;50248;-78
2023/01/05 10:44:51;;;;;;;;;;;;;;;18.02;65.99;100441.28;2257786;78;51580;-77
2023/01/05 10:47:52;;;;;;;;;;;;;;;18.05;65.85;100438.23;2237857;78;50063;-77
2023/01/05 10:50:54;;;;;;;;;;;;;;;18.04;65.87;100433.91;2251771;78;50761;-78
2023/01/05 10:53:56;;;;;;;;;;;;;;;18.03;65.87;100430.06;2262432;78;50101;-77
2023/01/05 10:56:59;;;;;;;;;;;;;;;18.01;65.92;100433.45;2251491;79;51553;-78
2023/01/05 11:00:02;;;;;;;;;;;;;;;18.01;65.95;100438.30;2252030;78;50713;-77
2023/01/05 11:03:06;;;;;;;;;;;;;;;18.01;65.94;100441.48;2237389;78;50531;-77
2023/01/05 11:06:08;;;;;;;;;;;;;;;17.97;65.96;100439.67;2251711;78;22318;-77
2023/01/05 11:09:14;;;;;;;;;;;;;;;17.98;65.96;100447.19;2251727;78;50698;-78
2023/01/05 11:12:17;;;;;;;;;;;;;;;17.89;66.14;100455.81;2254061;78;50441;-77
2023/01/05 11:15:19;;;;;;;;;;;;;;;17.87;66.22;100468.55;2264342;78;50506;-77
2023/01/05 11:18:28;;;;;;;;;;;;;;;17.94;66.13;100461.97;2266820;78;50034;-77
2023/01/05 11:21:40;;;;;;;;;;;;;;;18.05;65.83;100465.00;2265249;78;50429;-77
2023/01/05 11:24:41;;;;;;;;;;;;;;;18.05;65.79;100477.05;2265491;78;22408;-77
2023/01/05 11:27:42;;;;;;;;;;;;;;;18.05;65.73;100472.22;2265328;78;50267;-77
2023/01/05 11:30:48;;;;;;;;;;;;;;;18.04;65.73;100487.97;2242112;78;51196;-77
2023/01/05 11:33:51;;;;;;;;;;;;;;;18.00;65.85;100486.66;2265437;78;50796;-77
2023/01/05 11:36:57;;;;;;;;;;;;;;;18.00;65.72;100491.50;2265137;78;51625;-77
2023/01/05 11:39:59;;;;;;;;;;;;;;;17.97;65.82;100490.53;2265753;78;51621;-77
2023/01/05 11:43:01;;;;;;;;;;;;;;;17.95;65.87;100504.59;2264723;77;52716;-76
2023/01/05 11:46:03;;;;;;;;;;;;;;;17.94;65.85;100498.11;2251880;79;50756;-76
2023/01/05 11:49:04;;;;;;;;;;;;;;;17.83;66.11;100508.75;2251099;78;50778;-75
2023/01/05 11:52:08;;;;;;;;;;;;;;;17.87;66.10;100517.23;2250772;79;51530;-75
2023/01/05 11:55:29;;;;;;;;;;;;;;;17.93;66.03;100529.41;2236255;79;52328;-75
2023/01/05 11:58:34;;;;;;;;;;;;;;;18.02;65.77;100543.02;2250589;79;51528;-75
2023/01/05 12:01:50;;;;;;;;;;;;;;;18.11;65.44;100534.91;2268445;78;51537;-76
2023/01/05 12:04:58;;;;;;;;;;;;;;;18.07;65.50;100549.17;2268911;77;51539;-75
2023/01/05 12:08:08;;;;;;;;;;;;;;;18.04;65.54;100541.52;2245261;78;49629;-75
2023/01/05 12:11:14;;;;;;;;;;;;;;;18.01;65.60;100552.08;2256730;78;51563;-76
2023/01/05 12:14:20;;;;;;;;;;;;;;;17.98;65.67;100565.84;2267437;78;51527;-75
2023/01/05 12:17:23;;;;;;;;;;;;;;;17.98;65.65;100568.52;2268717;77;50958;-75
2023/01/05 12:20:27;;;;;;;;;;;;;;;17.98;65.64;100567.66;2245254;78;51933;-75
2023/01/05 12:23:33;;;;;;;;;;;;;;;17.97;65.64;100566.83;2269025;77;50830;-76
2023/01/05 12:26:36;;;;;;;;;;;;;;;17.89;65.79;100565.56;2269114;78;50330;-76
2023/01/05 12:29:51;;;;;;;;;;;;;;;17.92;65.81;100577.24;2269136;77;50449;-76
2023/01/05 12:32:57;;;;;;;;;;;;;;;17.99;65.66;100576.03;2246169;78;51781;-76
2023/01/05 12:36:10;;;;;;;;;;;;;;;18.08;65.35;100582.13;2269453;77;50773;-76
2023/01/05 12:39:16;;;;;;;;;;;;;;;18.06;65.37;100589.85;2269359;77;50778;-76
2023/01/05 12:42:26;;;;;;;;;;;;;;;18.05;65.37;100597.54;2267503;78;50405;-76
2023/01/05 12:45:35;;;;;;;;;;;;;;;18.03;65.41;100598.73;2212703;79;49625;-76
2023/01/05 12:48:38;;;;;;;;;;;;;;;18.02;65.37;100593.89;2232060;79;51530;-76
2023/01/05 12:51:44;;;;;;;;;;;;;;;17.97;65.53;100596.28;2232468;79;50445;-76
2023/01/05 12:55:04;;;;;;;;;;;;;;;17.95;65.55;100599.63;2232437;79;51480;-76
2023/01/05 12:58:10;;;;;;;;;;;;;;;17.92;65.60;100626.77;2209343;79;49326;-76
2023/01/05 13:01:13;;;;;;;;;;;;;;;17.88;65.74;100629.97;2213727;78;51683;-74
2023/01/05 13:04:22;;;;;;;;;;;;;;;17.86;65.80;100634.70;2234702;79;50554;-75
2023/01/05 13:07:28;;;;;;;;;;;;;;;17.94;65.67;100639.98;2256621;78;50786;-75
2023/01/05 13:10:31;;;;;;;;;;;;;;;18.01;65.49;100650.31;2245965;78;51058;-75
2023/01/05 13:13:38;;;;;;;;;;;;;;;18.03;65.39;100648.27;2248414;78;50758;-75
2023/01/05 13:16:43;;;;;;;;;;;;;;;18.01;65.40;100644.95;2271020;77;51683;-75
2023/01/05 13:19:48;;;;;;;;;;;;;;;18.03;65.35;100649.60;2268405;77;50464;-74
2023/01/05 13:22:51;;;;;;;;;;;;;;;18.02;65.30;100660.00;2246435;78;51187;-75
2023/01/05 13:25:59;;;;;;;;;;;;;;;17.97;65.41;100684.63;2269471;77;51471;-75
2023/01/05 13:29:01;;;;;;;;;;;;;;;17.93;65.51;100681.99;2262473;78;51531;-73
2023/01/05 13:32:13;;;;;;;;;;;;;;;17.92;65.51;100682.98;2263112;78;51288;-74
2023/01/05 13:35:16;;;;;;;;;;;;;;;17.86;65.63;100691.73;2244539;78;51877;-74
2023/01/05 13:38:19;;;;;;;;;;;;;;;17.81;65.77;100698.13;2267172;77;50776;-75
2023/01/05 13:41:26;;;;;;;;;;;;;;;17.83;65.79;100709.49;2267482;78;50844;-74
2023/01/05 13:44:41;;;;;;;;;;;;;;;17.92;65.71;100717.78;2263193;78;50480;-76
2023/01/05 13:47:47;;;;;;;;;;;;;;;18.01;65.54;100721.27;2241795;78;52539;-75
2023/01/05 13:51:07;;;;;;;;;;;;;;;18.03;65.50;100724.57;2259910;77;51483;-75
2023/01/05 13:54:19;;;;;;;;;;;;;;;18.03;65.40;100740.16;2264631;77;51520;-75
2023/01/05 13:57:22;;;;;;;;;;;;;;;18.01;65.62;100723.42;2258212;78;51480;-74
2023/01/05 14:00:28;;;;;;;;;;;;;;;18.03;65.55;100737.48;2248924;78;51588;-75
2023/01/05 14:03:34;;;;;;;;;;;;;;;18.02;65.52;100740.32;2263760;78;51999;-75
2023/01/05 14:06:36;;;;;;;;;;;;;;;18.01;65.57;100764.92;2263625;78;51497;-75
2023/01/05 14:09:39;;;;;;;;;;;;;;;17.94;65.81;100763.95;2267038;78;51598;-74
2023/01/05 14:12:42;;;;;;;;;;;;;;;17.88;65.83;100761.14;2251482;77;51490;-74
2023/01/05 14:15:43;;;;;;;;;;;;;;;17.83;65.93;100765.19;2268846;77;50718;-73
2023/01/05 14:18:48;;;;;;;;;;;;;;;17.86;65.86;100781.41;2268798;77;50723;-74
2023/01/05 14:21:53;;;;;;;;;;;;;;;17.96;65.72;100791.91;2268877;77;51598;-74
2023/01/05 14:24:54;;;;;;;;;;;;;;;17.98;65.52;100788.05;2245479;78;49599;-75
2023/01/05 14:28:16;;;;;;;;;;;;;;;18.00;65.39;100796.70;2268774;77;50397;-74
2023/01/05 14:31:26;;;;;;;;;;;;;;;18.00;65.37;100812.77;2268790;77;51512;-75
2023/01/05 14:34:26;;;;;;;;;;;;;;;17.96;65.42;100818.17;2268847;78;22209;-74
2023/01/05 14:37:37;;;;;;;;;;;;;;;17.96;65.41;100835.56;2245280;78;51177;-75
2023/01/05 14:40:39;;;;;;;;;;;;;;;17.95;65.41;100836.56;2268959;77;50686;-75
2023/01/05 14:43:40;;;;;;;;;;;;;;;17.91;65.47;100845.14;2265897;77;51465;-74
2023/01/05 14:46:44;;;;;;;;;;;;;;;17.87;65.55;100856.67;2264641;78;51448;-75
2023/01/05 14:49:52;;;;;;;;;;;;;;;17.81;65.71;100858.20;2238227;78;50929;-74
2023/01/05 14:53:07;;;;;;;;;;;;;;;17.81;65.75;100874.78;2264594;78;50317;-75
2023/01/05 14:56:10;;;;;;;;;;;;;;;17.83;65.71;100873.59;2264958;78;51530;-74
2023/01/05 14:59:22;;;;;;;;;;;;;;;17.96;65.44;100882.93;2265286;78;51499;-74
2023/01/05 15:02:24;;;;;;;;;;;;;;;18.00;65.29;100882.39;2267169;78;51136;-75
2023/01/05 15:05:26;;;;;;;;;;;;;;;18.02;65.16;100901.80;2265192;78;50113;-75
2023/01/05 15:08:29;;;;;;;;;;;;;;;18.02;65.10;100908.48;2265430;78;50352;-74
2023/01/05 15:11:44;;;;;;;;;;;;;;;18.00;65.12;100914.52;2255974;77;50284;-75
2023/01/05 15:14:51;;;;;;;;;;;;;;;17.99;65.15;100927.58;2246532;78;50160;-75
2023/01/05 15:17:54;;;;;;;;;;;;;;;17.96;65.17;100931.95;2271043;77;50894;-76
2023/01/05 15:21:00;;;;;;;;;;;;;;;17.94;65.24;100941.98;2269285;77;50808;-75
2023/01/05 15:24:09;;;;;;;;;;;;;;;17.92;65.23;100951.20;2268751;77;50716;-75
2023/01/05 15:27:31;;;;;;;;;;;;;;;17.85;65.46;100952.37;2235338;78;51439;-75
2023/01/05 15:30:43;;;;;;;;;;;;;;;17.82;65.57;100960.23;2259065;77;50691;-77
2023/01/05 15:33:55;;;;;;;;;;;;;;;17.87;65.48;100967.77;2254704;78;52072;-76
2023/01/05 15:37:01;;;;;;;;;;;;;;;17.96;65.27;100974.79;2264195;78;51394;-77
2023/01/05 15:40:03;;;;;;;;;;;;;;;18.02;65.02;100986.65;2233938;78;51097;-73
2023/01/05 15:43:05;;;;;;;;;;;;;;;18.02;64.94;100988.81;2239461;78;50436;-74
2023/01/05 15:46:07;;;;;;;;;;;;;;;18.02;64.91;100998.19;2265419;78;50282;-75
2023/01/05 15:49:10;;;;;;;;;;;;;;;18.01;64.94;101003.22;2268852;77;50640;-74
2023/01/05 15:52:19;;;;;;;;;;;;;;;17.99;64.98;101006.57;2245335;78;52572;-75
2023/01/05 15:55:21;;;;;;;;;;;;;;;17.94;65.04;101003.56;2268920;77;50438;-74
2023/01/05 15:58:22;;;;;;;;;;;;;;;17.93;65.06;101008.60;2268728;78;50286;-75
2023/01/05 16:01:24;;;;;;;;;;;;;;;17.91;65.10;101016.47;2267894;78;51518;-74
2023/01/05 16:04:26;;;;;;;;;;;;;;;17.90;65.23;101023.64;2242201;77;50951;-74
2023/01/05 16:07:27;;;;;;;;;;;;;;;17.81;65.65;101031.36;2266333;77;50098;-74
2023/01/05 16:10:40;;;;;;;;;;;;;;;17.81;65.84;101036.20;2266556;77;50647;-75
2023/01/05 16:13:43;;;;;;;;;;;;;;;17.86;65.97;101025.00;2260674;77;50496;-75
2023/01/05 16:16:46;;;;;;;;;;;;;;;17.88;66.04;101032.37;2240618;78;51410;-75
2023/01/05 16:19:49;;;;;;;;;;;;;;;17.90;66.13;101046.39;2265702;77;50307;-75
2023/01/05 16:22:52;;;;;;;;;;;;;;;17.90;66.36;101047.73;2266375;77;51503;-74